createdAt,value
2018-08-30T00:02:12.359Z,4.33
2018-08-30T00:04:41.023Z,3.60
2018-08-30T00:07:09.648Z,4.33
2018-08-30T00:09:38.352Z,4.10
2018-08-30T00:12:07.121Z,3.87
2018-08-30T00:14:35.816Z,3.50
2018-08-30T00:17:04.501Z,3.70
2018-08-30T00:19:33.249Z,3.10
2018-08-30T00:22:02.105Z,3.83
2018-08-30T00:24:30.990Z,3.93
2018-08-30T00:26:59.617Z,3.07
2018-08-30T00:29:28.262Z,3.33
2018-08-30T00:31:56.888Z,3.20
2018-08-30T00:34:25.538Z,3.30
2018-08-30T00:36:54.180Z,3.27
2018-08-30T00:39:22.814Z,3.80
2018-08-30T00:41:51.446Z,3.03
2018-08-30T00:44:20.148Z,3.23
2018-08-30T00:46:48.917Z,3.40
2018-08-30T00:49:17.560Z,2.90
2018-08-30T00:51:46.264Z,2.50
2018-08-30T00:54:14.914Z,3.40
2018-08-30T00:56:43.546Z,3.57
2018-08-30T00:59:12.229Z,2.47
2018-08-30T01:01:40.902Z,2.70
2018-08-30T01:04:09.537Z,2.97
2018-08-30T01:06:38.177Z,2.73
2018-08-30T01:09:07.422Z,3.80
2018-08-30T01:11:36.279Z,3.57
2018-08-30T01:14:04.935Z,4.17
2018-08-30T01:16:33.840Z,4.70
2018-08-30T01:19:02.756Z,4.70
2018-08-30T01:21:31.409Z,4.90
2018-08-30T01:24:00.138Z,5.37
2018-08-30T01:26:28.756Z,5.00
2018-08-30T01:28:57.450Z,5.00
2018-08-30T01:31:26.129Z,5.17
2018-08-30T01:33:54.826Z,5.50
2018-08-30T01:36:23.484Z,5.60
2018-08-30T01:38:52.127Z,5.30
2018-08-30T01:41:20.782Z,5.43
2018-08-30T01:43:49.437Z,5.67
2018-08-30T01:46:18.051Z,5.80
2018-08-30T01:48:46.781Z,5.10
2018-08-30T01:51:15.420Z,5.60
2018-08-30T01:53:44.061Z,5.73
2018-08-30T01:56:12.817Z,5.60
2018-08-30T01:58:41.452Z,5.93
2018-08-30T02:01:10.365Z,5.40
2018-08-30T02:03:39.002Z,5.63
2018-08-30T02:06:07.630Z,5.27
2018-08-30T02:08:36.284Z,5.27
2018-08-30T02:11:05.084Z,5.77
2018-08-30T02:13:34.003Z,5.17
2018-08-30T02:16:02.684Z,5.30
2018-08-30T02:18:31.313Z,5.50
2018-08-30T02:20:59.951Z,5.43
2018-08-30T02:23:29.797Z,5.07
2018-08-30T02:25:58.526Z,4.93
2018-08-30T02:28:27.145Z,5.13
2018-08-30T02:30:55.749Z,5.00
2018-08-30T02:33:24.398Z,4.57
2018-08-30T02:35:53.011Z,4.80
2018-08-30T02:38:21.985Z,5.13
2018-08-30T02:40:50.634Z,4.87
2018-08-30T02:43:19.276Z,5.13
2018-08-30T02:45:47.934Z,5.10
2018-08-30T02:48:16.556Z,5.17
2018-08-30T02:50:45.434Z,5.07
2018-08-30T02:53:14.045Z,4.33
2018-08-30T02:55:42.662Z,4.87
2018-08-30T02:58:11.287Z,4.60
2018-08-30T03:00:39.911Z,4.73
2018-08-30T03:03:08.582Z,4.90
2018-08-30T03:05:37.261Z,5.43
2018-08-30T03:08:05.908Z,5.83
2018-08-30T03:10:34.585Z,5.17
2018-08-30T03:13:03.417Z,5.03
2018-08-30T03:15:32.017Z,5.27
2018-08-30T03:18:00.656Z,4.67
2018-08-30T03:20:29.273Z,5.13
2018-08-30T03:22:57.903Z,5.23
2018-08-30T03:25:26.521Z,4.87
2018-08-30T03:27:55.473Z,6.00
2018-08-30T03:30:24.243Z,5.17
2018-08-30T03:32:52.740Z,5.53
2018-08-30T03:35:21.434Z,5.90
2018-08-30T03:37:50.112Z,5.67
2018-08-30T03:40:18.781Z,6.17
2018-08-30T03:42:47.398Z,6.07
2018-08-30T03:45:16.018Z,6.27
2018-08-30T03:47:44.644Z,5.53
2018-08-30T03:50:13.254Z,6.53
2018-08-30T03:52:41.995Z,5.77
2018-08-30T03:55:10.654Z,5.80
2018-08-30T03:57:39.281Z,5.37
2018-08-30T04:00:08.007Z,5.93
2018-08-30T04:02:36.621Z,5.07
2018-08-30T04:05:05.451Z,5.20
2018-08-30T04:07:34.065Z,5.63
2018-08-30T04:10:02.697Z,5.13
2018-08-30T04:12:31.357Z,6.50
2018-08-30T04:14:59.981Z,5.00
2018-08-30T04:17:28.722Z,5.30
2018-08-30T04:19:57.374Z,5.20
2018-08-30T04:22:26.024Z,5.27
2018-08-30T04:24:54.662Z,4.63
2018-08-30T04:27:23.290Z,5.47
2018-08-30T04:29:52.031Z,5.07
2018-08-30T04:32:20.649Z,5.23
2018-08-30T04:34:49.324Z,6.30
2018-08-30T04:37:17.950Z,5.70
2018-08-30T04:39:46.549Z,6.13
2018-08-30T04:42:15.223Z,6.90
2018-08-30T04:44:43.852Z,7.63
2018-08-30T04:47:12.449Z,8.30
2018-08-30T04:49:41.160Z,8.47
2018-08-30T04:52:09.905Z,8.50
2018-08-30T04:54:38.548Z,9.50
2018-08-30T04:57:07.238Z,9.27
2018-08-30T04:59:35.854Z,10.07
2018-08-30T05:02:04.538Z,10.20
2018-08-30T05:04:33.469Z,9.27
2018-08-30T05:07:02.717Z,9.80
2018-08-30T05:09:31.362Z,10.27
2018-08-30T05:12:00.005Z,9.63
2018-08-30T05:14:28.645Z,10.33
2018-08-30T05:16:57.282Z,10.77
2018-08-30T05:19:25.905Z,10.40
2018-08-30T05:21:54.522Z,10.67
2018-08-30T05:24:23.189Z,10.30
2018-08-30T05:26:51.801Z,11.40
2018-08-30T05:29:20.609Z,11.60
2018-08-30T05:31:49.244Z,9.40
2018-08-30T05:34:17.919Z,10.47
2018-08-30T05:36:46.542Z,11.20
2018-08-30T05:39:15.182Z,12.00
2018-08-30T05:41:43.881Z,12.37
2018-08-30T05:44:12.725Z,11.67
2018-08-30T05:46:41.341Z,11.43
2018-08-30T05:49:09.965Z,12.83
2018-08-30T05:51:38.741Z,12.33
2018-08-30T05:54:07.644Z,11.97
2018-08-30T05:56:36.292Z,13.13
2018-08-30T05:59:05.585Z,12.37
2018-08-30T06:01:34.256Z,12.63
2018-08-30T06:04:02.930Z,12.17
2018-08-30T06:06:31.545Z,13.07
2018-08-30T06:09:00.193Z,12.37
2018-08-30T06:11:28.819Z,11.47
2018-08-30T06:13:57.477Z,12.17
2018-08-30T06:16:26.133Z,10.93
2018-08-30T06:18:54.752Z,11.90
2018-08-30T06:21:23.389Z,11.60
2018-08-30T06:23:52.053Z,10.93
2018-08-30T06:26:20.721Z,11.17
2018-08-30T06:28:49.344Z,10.60
2018-08-30T06:31:17.984Z,10.07
2018-08-30T06:33:46.674Z,9.93
2018-08-30T06:36:15.369Z,10.37
2018-08-30T06:38:44.077Z,10.63
2018-08-30T06:41:12.625Z,10.00
2018-08-30T06:43:41.230Z,9.80
2018-08-30T06:46:10.208Z,10.57
2018-08-30T06:48:38.927Z,10.57
2018-08-30T06:51:07.478Z,10.50
2018-08-30T06:53:36.123Z,10.33
2018-08-30T06:56:04.757Z,10.03
2018-08-30T06:58:33.525Z,10.37
2018-08-30T07:01:02.144Z,11.37
2018-08-30T07:03:30.738Z,10.00
2018-08-30T07:05:59.362Z,10.40
2018-08-30T07:08:27.966Z,10.17
2018-08-30T07:10:56.618Z,9.80
2018-08-30T07:13:25.220Z,9.93
2018-08-30T07:15:53.834Z,8.50
2018-08-30T07:18:22.581Z,9.83
2018-08-30T07:20:51.188Z,8.77
2018-08-30T07:23:19.826Z,8.10
2018-08-30T07:25:48.420Z,8.00
2018-08-30T07:28:17.046Z,6.63
2018-08-30T07:30:45.649Z,6.90
2018-08-30T07:33:14.240Z,7.17
2018-08-30T07:35:43.054Z,7.70
2018-08-30T07:38:11.647Z,6.73
2018-08-30T07:40:40.254Z,7.20
2018-08-30T07:43:08.906Z,6.60
2018-08-30T07:45:37.530Z,6.93
2018-08-30T07:48:06.249Z,6.60
2018-08-30T07:50:34.898Z,7.30
2018-08-30T07:53:03.497Z,6.93
2018-08-30T07:55:32.121Z,7.20
2018-08-30T07:58:00.725Z,6.57
2018-08-30T08:00:29.453Z,6.30
2018-08-30T08:02:58.070Z,5.93
2018-08-30T08:05:26.689Z,5.63
2018-08-30T08:07:55.309Z,6.10
2018-08-30T08:10:23.936Z,6.23
2018-08-30T08:12:52.642Z,6.10
2018-08-30T08:15:21.305Z,6.30
2018-08-30T08:17:49.905Z,6.13
2018-08-30T08:20:18.538Z,5.63
2018-08-30T08:22:47.185Z,5.60
2018-08-30T08:25:15.897Z,4.80
2018-08-30T08:27:44.541Z,4.27
2018-08-30T08:30:13.169Z,4.47
2018-08-30T08:32:41.817Z,3.77
2018-08-30T08:35:10.441Z,4.10
2018-08-30T08:37:39.170Z,3.93
2018-08-30T08:40:07.800Z,3.10
2018-08-30T08:42:36.402Z,2.93
2018-08-30T08:45:05.110Z,2.50
2018-08-30T08:47:33.880Z,3.03
2018-08-30T08:50:02.541Z,2.80
2018-08-30T08:52:31.202Z,3.20
2018-08-30T08:54:59.846Z,2.80
2018-08-30T08:57:28.577Z,3.10
2018-08-30T08:59:57.218Z,3.03
2018-08-30T09:02:25.958Z,2.97
2018-08-30T09:04:54.577Z,3.33
2018-08-30T09:07:23.248Z,3.20
2018-08-30T09:09:51.930Z,3.23
2018-08-30T09:12:20.582Z,2.97
2018-08-30T09:14:49.201Z,3.20
2018-08-30T09:17:17.976Z,3.10
2018-08-30T09:19:46.660Z,3.50
2018-08-30T09:22:15.298Z,3.30
2018-08-30T09:24:43.981Z,3.13
2018-08-30T09:27:12.721Z,3.20
2018-08-30T09:29:41.492Z,3.13
2018-08-30T09:32:10.216Z,3.30
2018-08-30T09:34:38.882Z,2.80
2018-08-30T09:37:07.610Z,2.30
2018-08-30T09:39:36.306Z,2.60
2018-08-30T09:42:05.026Z,2.53
2018-08-30T09:44:33.667Z,2.80
2018-08-30T09:47:02.317Z,2.53
2018-08-30T09:49:31.027Z,1.97
2018-08-30T09:51:59.668Z,2.67
2018-08-30T09:54:28.469Z,2.20
2018-08-30T09:56:57.237Z,2.03
2018-08-30T09:59:25.883Z,2.57
2018-08-30T10:01:59.929Z,2.40
2018-08-30T10:04:28.571Z,2.20
2018-08-30T10:06:57.383Z,2.00
2018-08-30T10:09:26.026Z,2.40
2018-08-30T10:11:54.713Z,2.40
2018-08-30T10:14:23.389Z,2.67
2018-08-30T10:16:52.024Z,2.20
2018-08-30T10:19:20.762Z,2.40
2018-08-30T10:21:50.215Z,2.13
2018-08-30T10:24:18.918Z,2.33
2018-08-30T10:26:47.608Z,2.30
2018-08-30T10:29:16.304Z,2.60
2018-08-30T10:31:44.913Z,2.70
2018-08-30T10:34:13.564Z,2.80
2018-08-30T10:36:42.177Z,2.60
2018-08-30T10:39:10.838Z,2.73
2018-08-30T10:41:39.486Z,3.50
2018-08-30T10:44:08.304Z,3.77
2018-08-30T10:46:36.988Z,4.23
2018-08-30T10:49:05.681Z,4.77
2018-08-30T10:51:34.388Z,4.50
2018-08-30T10:54:03.017Z,4.90
2018-08-30T10:56:31.718Z,5.07
2018-08-30T10:59:00.447Z,4.77
2018-08-30T11:01:29.112Z,6.07
2018-08-30T11:03:57.983Z,5.10
2018-08-30T11:06:26.695Z,5.27
2018-08-30T11:08:55.581Z,4.80
2018-08-30T11:11:24.206Z,5.27
2018-08-30T11:13:52.824Z,4.97
2018-08-30T11:16:21.477Z,4.90
2018-08-30T11:18:50.090Z,4.33
2018-08-30T11:21:19.021Z,4.13
2018-08-30T11:23:47.636Z,4.87
2018-08-30T11:26:16.314Z,4.40
2018-08-30T11:28:44.957Z,4.97
2018-08-30T11:31:13.597Z,4.80
2018-08-30T11:33:42.253Z,5.20
2018-08-30T11:36:10.873Z,6.07
2018-08-30T11:38:39.556Z,6.07
2018-08-30T11:41:08.245Z,5.30
2018-08-30T11:43:36.911Z,5.87
2018-08-30T11:46:05.608Z,7.37
2018-08-30T11:48:34.246Z,7.73
2018-08-30T11:51:02.965Z,6.93
2018-08-30T11:53:31.702Z,7.60
2018-08-30T11:56:00.377Z,8.00
2018-08-30T11:58:29.064Z,8.63
2018-08-30T12:00:57.766Z,8.03
2018-08-30T12:03:26.361Z,7.63
2018-08-30T12:05:55.150Z,8.43
2018-08-30T12:08:23.799Z,8.50
2018-08-30T12:10:52.582Z,10.07
2018-08-30T12:13:21.143Z,10.10
2018-08-30T12:15:49.784Z,9.43
2018-08-30T12:18:18.508Z,10.90
2018-08-30T12:20:47.366Z,11.53
2018-08-30T12:23:15.873Z,11.60
2018-08-30T12:25:44.481Z,11.30
2018-08-30T12:28:13.153Z,12.33
2018-08-30T12:30:41.839Z,12.60
2018-08-30T12:33:10.464Z,10.93
2018-08-30T12:35:39.216Z,11.37
2018-08-30T12:38:07.823Z,12.23
2018-08-30T12:40:36.476Z,11.13
2018-08-30T12:43:05.611Z,12.10
2018-08-30T12:45:34.221Z,12.30
2018-08-30T12:48:03.115Z,11.20
2018-08-30T12:50:31.885Z,10.97
2018-08-30T12:53:00.518Z,10.10
2018-08-30T12:55:29.170Z,10.60
2018-08-30T12:57:57.790Z,10.03
2018-08-30T13:00:26.526Z,11.03
2018-08-30T13:02:55.300Z,9.17
2018-08-30T13:05:24.399Z,10.53
2018-08-30T13:07:52.895Z,8.97
2018-08-30T13:10:21.627Z,10.70
2018-08-30T13:12:50.322Z,10.00
2018-08-30T13:15:19.189Z,10.23
2018-08-30T13:17:47.763Z,10.50
2018-08-30T13:20:16.345Z,10.70
2018-08-30T13:22:45.172Z,10.73
2018-08-30T13:25:13.893Z,10.60
2018-08-30T13:27:42.470Z,11.60
2018-08-30T13:30:11.650Z,10.57
2018-08-30T13:32:40.300Z,10.47
2018-08-30T13:35:08.911Z,10.73
2018-08-30T13:37:37.666Z,9.20
2018-08-30T13:40:06.582Z,10.60
2018-08-30T13:42:35.216Z,8.90
2018-08-30T13:45:03.924Z,8.30
2018-08-30T13:47:32.409Z,8.00
2018-08-30T13:50:00.978Z,9.10
2018-08-30T13:52:29.839Z,9.07
2018-08-30T13:54:58.471Z,9.00
2018-08-30T13:57:27.251Z,8.97
2018-08-30T13:59:55.819Z,8.70
2018-08-30T14:02:24.292Z,8.27
2018-08-30T14:04:52.919Z,9.07
2018-08-30T14:07:21.836Z,8.80
2018-08-30T14:09:50.511Z,8.90
2018-08-30T14:12:19.290Z,8.57
2018-08-30T14:14:48.077Z,9.03
2018-08-30T14:17:16.548Z,9.20
2018-08-30T14:19:45.388Z,8.70
2018-08-30T14:22:14.043Z,8.10
2018-08-30T14:24:42.625Z,9.03
2018-08-30T14:27:11.270Z,8.67
2018-08-30T14:29:39.918Z,9.63
2018-08-30T14:32:08.582Z,9.33
2018-08-30T14:34:37.196Z,8.73
2018-08-30T14:37:05.820Z,8.60
2018-08-30T14:39:34.465Z,8.50
2018-08-30T14:42:03.073Z,8.07
2018-08-30T14:44:31.749Z,8.30
2018-08-30T14:47:00.381Z,9.53
2018-08-30T14:49:29.136Z,7.90
2018-08-30T14:51:57.841Z,7.07
2018-08-30T14:54:26.502Z,7.77
2018-08-30T14:56:55.211Z,9.23
2018-08-30T14:59:23.906Z,9.20
2018-08-30T15:01:52.584Z,9.13
2018-08-30T15:04:21.235Z,8.30
2018-08-30T15:06:49.874Z,9.00
2018-08-30T15:09:18.491Z,8.90
2018-08-30T15:11:47.112Z,8.70
2018-08-30T15:14:15.734Z,9.03
2018-08-30T15:16:44.357Z,8.93
2018-08-30T15:19:12.971Z,7.73
2018-08-30T15:21:41.682Z,7.40
2018-08-30T15:24:10.281Z,8.27
2018-08-30T15:26:38.962Z,7.57
2018-08-30T15:29:07.623Z,8.30
2018-08-30T15:31:36.299Z,8.33
2018-08-30T15:34:04.988Z,8.27
2018-08-30T15:36:33.747Z,8.50
2018-08-30T15:39:02.441Z,8.30
2018-08-30T15:41:31.169Z,8.50
2018-08-30T15:43:59.782Z,9.13
2018-08-30T15:46:28.470Z,9.07
2018-08-30T15:48:57.282Z,8.93
2018-08-30T15:51:25.808Z,8.23
2018-08-30T15:53:54.458Z,8.77
2018-08-30T15:56:23.104Z,7.90
2018-08-30T15:58:51.765Z,9.27
2018-08-30T16:01:20.417Z,9.07
2018-08-30T16:03:49.025Z,8.67
2018-08-30T16:06:17.792Z,9.10
2018-08-30T16:08:46.362Z,8.50
2018-08-30T16:11:14.994Z,9.73
2018-08-30T16:13:43.688Z,9.27
2018-08-30T16:16:12.341Z,10.47
2018-08-30T16:18:41.011Z,9.90
2018-08-30T16:21:09.650Z,9.47
2018-08-30T16:23:38.504Z,10.20
2018-08-30T16:26:07.358Z,10.50
2018-08-30T16:28:36.192Z,9.50
2018-08-30T16:31:04.881Z,9.43
2018-08-30T16:33:33.520Z,9.53
2018-08-30T16:36:02.700Z,9.43
2018-08-30T16:38:31.367Z,9.60
2018-08-30T16:40:59.989Z,8.77
2018-08-30T16:43:28.630Z,8.87
2018-08-30T16:45:58.209Z,10.17
2018-08-30T16:48:26.935Z,9.17
2018-08-30T16:50:55.593Z,9.43
2018-08-30T16:53:24.327Z,9.27
2018-08-30T16:55:52.908Z,9.43
2018-08-30T16:58:21.588Z,9.87
2018-08-30T17:00:50.228Z,10.40
2018-08-30T17:03:18.884Z,9.60
2018-08-30T17:05:47.550Z,10.50
2018-08-30T17:08:18.062Z,9.73
2018-08-30T17:10:46.757Z,10.03
2018-08-30T17:13:15.385Z,10.23
2018-08-30T17:15:44.041Z,9.60
2018-08-30T17:18:12.725Z,10.03
2018-08-30T17:20:43.028Z,9.97
2018-08-30T17:23:11.869Z,10.63
2018-08-30T17:25:40.875Z,10.07
2018-08-30T17:28:09.556Z,10.47
2018-08-30T17:30:38.207Z,9.63
2018-08-30T17:33:06.888Z,10.53
2018-08-30T17:35:35.545Z,9.53
2018-08-30T17:38:04.336Z,9.77
2018-08-30T17:40:32.995Z,9.27
2018-08-30T17:43:01.680Z,9.13
2018-08-30T17:45:30.329Z,9.10
2018-08-30T17:47:59.001Z,9.20
2018-08-30T17:50:27.745Z,9.90
2018-08-30T17:52:56.333Z,9.77
2018-08-30T17:55:25.049Z,10.20
2018-08-30T17:57:53.678Z,10.47
2018-08-30T18:00:22.461Z,9.90
2018-08-30T18:02:51.066Z,9.67
2018-08-30T18:05:19.748Z,9.73
2018-08-30T18:07:48.392Z,10.00
2018-08-30T18:10:17.020Z,10.93
2018-08-30T18:12:45.674Z,10.70
2018-08-30T18:15:15.426Z,9.27
2018-08-30T18:17:45.152Z,10.20
2018-08-30T18:20:13.798Z,10.60
2018-08-30T18:22:42.397Z,11.27
2018-08-30T18:25:11.180Z,11.30
2018-08-30T18:27:39.809Z,12.00
2018-08-30T18:30:09.645Z,11.37
2018-08-30T18:32:38.306Z,11.93
2018-08-30T18:35:08.309Z,11.47
2018-08-30T18:37:37.092Z,11.30
2018-08-30T18:40:06.274Z,11.87
2018-08-30T18:42:35.017Z,10.27
2018-08-30T18:45:03.707Z,10.67
2018-08-30T18:47:32.341Z,11.27
2018-08-30T18:50:01.049Z,11.60
2018-08-30T18:52:29.663Z,10.77
2018-08-30T18:54:58.543Z,10.20
2018-08-30T18:57:27.192Z,10.23
2018-08-30T18:59:55.835Z,10.60
2018-08-30T19:02:24.465Z,10.90
2018-08-30T19:04:53.079Z,10.70
2018-08-30T19:07:21.750Z,11.30
2018-08-30T19:09:50.360Z,9.50
2018-08-30T19:12:18.970Z,9.83
2018-08-30T19:14:47.618Z,10.77
2018-08-30T19:17:21.550Z,10.53
2018-08-30T19:19:50.186Z,10.87
2018-08-30T19:22:18.812Z,11.67
2018-08-30T19:24:52.706Z,10.57
2018-08-30T19:27:21.328Z,10.63
2018-08-30T19:29:55.159Z,10.87
2018-08-30T19:32:23.813Z,11.20
2018-08-30T19:34:52.465Z,11.73
2018-08-30T19:37:21.078Z,10.90
2018-08-30T19:39:49.717Z,11.23
2018-08-30T19:42:18.366Z,11.90
2018-08-30T19:44:46.973Z,10.00
2018-08-30T19:47:15.628Z,11.57
2018-08-30T19:49:44.234Z,11.87
2018-08-30T19:52:13.129Z,12.93
2018-08-30T19:54:41.775Z,11.20
2018-08-30T19:57:10.404Z,12.00
2018-08-30T19:59:39.106Z,12.23
2018-08-30T20:02:07.982Z,37.33
2018-08-30T20:04:36.645Z,19.37
2018-08-30T20:07:05.474Z,12.10
2018-08-30T20:09:34.081Z,12.10
2018-08-30T20:12:03.055Z,11.97
2018-08-30T20:14:31.660Z,12.23
2018-08-30T20:17:00.310Z,11.47
2018-08-30T20:19:28.966Z,12.53
2018-08-30T20:21:57.607Z,13.53
2018-08-30T20:24:26.264Z,13.00
2018-08-30T20:26:54.927Z,13.73
2018-08-30T20:29:23.554Z,13.03
2018-08-30T20:31:52.230Z,12.63
2018-08-30T20:34:20.845Z,12.43
2018-08-30T20:36:49.626Z,11.53
2018-08-30T20:39:18.279Z,11.37
2018-08-30T20:41:46.918Z,13.13
2018-08-30T20:44:15.595Z,12.87
2018-08-30T20:46:44.322Z,11.60
2018-08-30T20:49:13.090Z,12.57
2018-08-30T20:51:41.790Z,12.50
2018-08-30T20:54:10.550Z,12.90
2018-08-30T20:56:39.281Z,11.60
2018-08-30T20:59:08.445Z,12.40
2018-08-30T21:01:37.235Z,12.63
2018-08-30T21:04:05.986Z,12.90
2018-08-30T21:06:34.702Z,12.43
2018-08-30T21:09:04.767Z,13.57
2018-08-30T21:11:33.401Z,13.47
2018-08-30T21:14:02.094Z,13.13
2018-08-30T21:16:30.724Z,13.00
2018-08-30T21:18:59.375Z,13.57
2018-08-30T21:21:28.039Z,12.43
2018-08-30T21:23:56.669Z,12.70
2018-08-30T21:26:25.354Z,13.67
2018-08-30T21:28:53.996Z,13.37
2018-08-30T21:31:22.630Z,13.90
2018-08-30T21:33:51.269Z,12.73
2018-08-30T21:36:19.893Z,54.57
2018-08-30T21:38:48.632Z,17.77
2018-08-30T21:41:17.290Z,13.63
2018-08-30T21:43:45.925Z,14.20
2018-08-30T21:46:14.657Z,13.67
2018-08-30T21:48:43.299Z,13.23
2018-08-30T21:51:12.307Z,13.17
2018-08-30T21:53:41.000Z,13.23
2018-08-30T21:56:09.761Z,13.90
2018-08-30T21:58:38.406Z,13.90
2018-08-30T22:01:07.170Z,14.43
2018-08-30T22:03:35.912Z,14.50
2018-08-30T22:06:04.533Z,13.40
2018-08-30T22:08:33.149Z,13.37
2018-08-30T22:11:01.810Z,13.13
2018-08-30T22:13:30.469Z,14.30
2018-08-30T22:15:59.244Z,14.27
2018-08-30T22:18:27.889Z,13.13
2018-08-30T22:20:56.536Z,14.40
2018-08-30T22:23:25.184Z,13.87
2018-08-30T22:25:53.806Z,14.27
2018-08-30T22:28:22.469Z,14.50
2018-08-30T22:30:51.085Z,13.63
2018-08-30T22:33:19.732Z,13.77
2018-08-30T22:35:48.394Z,14.57
2018-08-30T22:38:17.077Z,13.73
2018-08-30T22:40:45.744Z,13.63
2018-08-30T22:43:14.402Z,13.40
2018-08-30T22:45:43.017Z,14.20
2018-08-30T22:48:11.817Z,14.63
2018-08-30T22:50:40.466Z,13.60
2018-08-30T22:53:09.105Z,15.10
2018-08-30T22:55:37.758Z,14.87
2018-08-30T22:58:06.409Z,15.30
2018-08-30T23:00:35.301Z,13.70
2018-08-30T23:03:03.938Z,13.97
2018-08-30T23:05:32.615Z,14.20
2018-08-30T23:08:01.269Z,13.80
2018-08-30T23:10:29.915Z,14.83
2018-08-30T23:12:58.679Z,13.53
2018-08-30T23:15:27.310Z,14.83
2018-08-30T23:17:55.932Z,14.27
2018-08-30T23:20:24.582Z,13.33
2018-08-30T23:22:53.267Z,15.03
2018-08-30T23:25:22.116Z,12.87
2018-08-30T23:27:50.736Z,13.20
2018-08-30T23:30:19.382Z,13.33
2018-08-30T23:32:48.213Z,13.63
2018-08-30T23:35:16.846Z,14.40
2018-08-30T23:37:45.566Z,13.63
2018-08-30T23:40:14.247Z,13.77
2018-08-30T23:42:42.906Z,13.70
2018-08-30T23:45:11.553Z,13.27
2018-08-30T23:47:40.213Z,13.03
2018-08-30T23:50:09.060Z,14.33
2018-08-30T23:52:37.866Z,14.37
2018-08-30T23:55:06.598Z,14.03
2018-08-30T23:57:35.320Z,13.43
